createdAt,value
2018-11-14T00:00:48.111Z,89.71
2018-11-14T00:03:29.648Z,89.89
2018-11-14T00:06:11.339Z,89.56
2018-11-14T00:08:53.649Z,89.69
2018-11-14T00:11:36.070Z,89.96
2018-11-14T00:14:18.160Z,89.99
2018-11-14T00:17:00.117Z,90.46
2018-11-14T00:19:42.321Z,90.15
2018-11-14T00:22:25.388Z,90.23
2018-11-14T00:25:07.521Z,90.22
2018-11-14T00:27:49.922Z,90.68
2018-11-14T00:30:32.229Z,91.02
2018-11-14T00:33:14.667Z,91.20
2018-11-14T00:35:55.997Z,91.31
2018-11-14T00:38:37.577Z,91.78
2018-11-14T00:41:19.897Z,91.37
2018-11-14T00:44:02.620Z,91.57
2018-11-14T00:46:45.132Z,91.71
2018-11-14T00:49:27.949Z,91.31
2018-11-14T00:52:09.520Z,91.43
2018-11-14T00:54:51.323Z,91.40
2018-11-14T00:57:34.223Z,91.77
2018-11-14T01:00:17.589Z,91.80
2018-11-14T01:02:59.851Z,91.89
2018-11-14T01:05:43.110Z,92.00
2018-11-14T01:08:24.905Z,91.96
2018-11-14T01:11:06.504Z,92.18
2018-11-14T01:13:48.584Z,92.32
2018-11-14T01:16:30.678Z,92.69
2018-11-14T01:19:13.504Z,92.34
2018-11-14T01:21:57.546Z,92.30
2018-11-14T01:24:39.361Z,92.48
2018-11-14T01:27:21.615Z,92.35
2018-11-14T01:30:04.542Z,92.77
2018-11-14T01:32:47.337Z,92.62
2018-11-14T01:35:28.953Z,92.57
2018-11-14T01:38:11.005Z,93.37
2018-11-14T01:40:53.348Z,93.02
2018-11-14T01:43:35.344Z,93.04
2018-11-14T01:46:18.377Z,93.26
2018-11-14T01:49:00.469Z,93.09
2018-11-14T01:51:42.405Z,93.64
2018-11-14T01:54:24.988Z,93.51
2018-11-14T01:57:07.097Z,93.68
2018-11-14T01:59:49.737Z,93.96
2018-11-14T02:02:32.943Z,93.36
2018-11-14T02:05:14.713Z,93.27
2018-11-14T02:07:57.064Z,93.11
2018-11-14T02:10:39.425Z,93.20
2018-11-14T02:13:21.240Z,93.52
2018-11-14T02:16:03.658Z,93.48
2018-11-14T02:18:45.833Z,93.27
2018-11-14T02:21:28.004Z,93.65
2018-11-14T02:24:10.606Z,93.30
2018-11-14T02:26:53.541Z,93.72
2018-11-14T02:29:35.256Z,94.05
2018-11-14T02:32:17.381Z,93.48
2018-11-14T02:35:00.178Z,93.94
2018-11-14T02:37:43.381Z,94.37
2018-11-14T02:40:25.231Z,93.72
2018-11-14T02:43:08.770Z,94.02
2018-11-14T02:45:51.163Z,93.94
2018-11-14T02:48:33.234Z,94.01
2018-11-14T02:51:25.535Z,93.62
2018-11-14T02:54:07.485Z,93.57
2018-11-14T02:56:49.386Z,93.50
2018-11-14T02:59:31.915Z,93.75
2018-11-14T03:02:18.208Z,93.71
2018-11-14T03:05:00.761Z,93.62
2018-11-14T03:07:43.289Z,94.18
2018-11-14T03:10:25.730Z,93.85
2018-11-14T03:13:08.035Z,94.36
2018-11-14T03:15:50.851Z,93.94
2018-11-14T03:18:32.951Z,93.84
2018-11-14T03:21:14.665Z,94.20
2018-11-14T03:23:57.379Z,93.58
2018-11-14T03:26:39.469Z,93.16
2018-11-14T03:29:21.257Z,93.57
2018-11-14T03:32:04.237Z,94.00
2018-11-14T03:34:46.475Z,93.81
2018-11-14T03:37:28.801Z,93.88
2018-11-14T03:40:13.236Z,94.01
2018-11-14T03:42:55.642Z,93.32
2018-11-14T03:45:37.537Z,93.37
2018-11-14T03:48:19.639Z,93.86
2018-11-14T03:51:01.425Z,93.64
2018-11-14T03:53:43.345Z,93.11
2018-11-14T03:56:27.684Z,93.13
2018-11-14T03:59:10.280Z,93.38
2018-11-14T04:01:53.016Z,93.36
2018-11-14T04:04:35.861Z,93.01
2018-11-14T04:07:17.921Z,92.88
2018-11-14T04:10:00.149Z,93.19
2018-11-14T04:12:42.385Z,93.93
2018-11-14T04:15:24.638Z,94.02
2018-11-14T04:18:07.245Z,93.76
2018-11-14T04:20:49.780Z,94.11
2018-11-14T04:23:31.860Z,93.76
2018-11-14T04:26:13.881Z,94.09
2018-11-14T04:28:56.470Z,93.28
2018-11-14T04:31:38.570Z,93.67
2018-11-14T04:34:21.273Z,93.71
2018-11-14T04:37:04.185Z,93.52
2018-11-14T04:39:46.168Z,93.67
2018-11-14T04:42:27.812Z,93.40
2018-11-14T04:45:15.628Z,93.01
2018-11-14T04:47:58.112Z,93.59
2018-11-14T04:50:40.630Z,93.43
2018-11-14T04:53:22.779Z,93.36
2018-11-14T04:56:04.890Z,93.69
2018-11-14T04:58:46.559Z,93.53
2018-11-14T05:01:29.221Z,93.72
2018-11-14T05:04:11.225Z,93.79
2018-11-14T05:06:53.545Z,94.04
2018-11-14T05:09:36.345Z,94.76
2018-11-14T05:12:17.846Z,94.37
2018-11-14T05:14:59.975Z,93.90
2018-11-14T05:17:42.698Z,93.32
2018-11-14T05:20:24.982Z,94.09
2018-11-14T05:23:07.313Z,93.37
2018-11-14T05:25:50.932Z,93.76
2018-11-14T05:28:33.210Z,94.01
2018-11-14T05:31:14.975Z,93.60
2018-11-14T05:33:57.721Z,92.96
2018-11-14T05:36:39.292Z,93.68
2018-11-14T05:39:21.328Z,93.44
2018-11-14T05:42:04.085Z,93.09
2018-11-14T05:44:46.380Z,93.29
2018-11-14T05:47:28.922Z,93.29
2018-11-14T05:50:13.558Z,93.51
2018-11-14T05:52:56.529Z,93.35
2018-11-14T05:55:39.058Z,93.87
2018-11-14T05:58:22.073Z,93.69
2018-11-14T06:01:03.628Z,93.94
2018-11-14T06:03:45.245Z,94.48
2018-11-14T06:06:27.739Z,93.79
2018-11-14T06:09:10.742Z,94.31
2018-11-14T06:11:52.835Z,94.04
2018-11-14T06:14:34.261Z,94.11
2018-11-14T06:17:16.231Z,94.69
2018-11-14T06:19:58.274Z,94.86
2018-11-14T06:22:40.240Z,94.30
2018-11-14T06:25:30.977Z,94.07
2018-11-14T06:28:12.660Z,94.34
2018-11-14T06:30:55.010Z,93.50
2018-11-14T06:33:36.864Z,93.87
2018-11-14T06:39:28.476Z,94.05
2018-11-14T06:42:10.389Z,94.20
2018-11-14T06:44:52.579Z,93.98
2018-11-14T06:47:34.879Z,93.49
2018-11-14T06:50:16.589Z,93.46
2018-11-14T06:53:06.974Z,93.47
2018-11-14T06:55:48.696Z,93.66
2018-11-14T06:58:30.261Z,94.07
2018-11-14T07:01:12.345Z,93.77
2018-11-14T07:03:54.577Z,93.70
2018-11-14T07:06:36.442Z,93.31
2018-11-14T07:09:18.538Z,92.97
2018-11-14T07:12:00.978Z,93.78
2018-11-14T07:14:42.639Z,93.24
2018-11-14T07:17:25.047Z,93.16
2018-11-14T07:20:15.373Z,92.89
2018-11-14T07:22:57.471Z,93.10
2018-11-14T07:25:39.757Z,92.84
2018-11-14T07:28:21.242Z,92.99
2018-11-14T07:31:03.804Z,92.82
2018-11-14T07:33:46.246Z,92.74
2018-11-14T07:36:28.734Z,92.52
2018-11-14T07:39:11.192Z,91.63
2018-11-14T07:41:53.563Z,92.58
2018-11-14T07:44:35.179Z,92.25
2018-11-14T07:47:16.892Z,92.22
2018-11-14T07:49:59.307Z,92.01
2018-11-14T07:52:41.043Z,90.92
2018-11-14T07:55:23.600Z,90.57
2018-11-14T07:58:05.898Z,87.71
2018-11-14T08:00:47.697Z,83.70
2018-11-14T08:03:29.903Z,81.19
2018-11-14T08:06:12.311Z,78.05
2018-11-14T08:08:54.102Z,76.15
2018-11-14T08:11:36.610Z,76.64
2018-11-14T08:14:19.234Z,77.65
2018-11-14T08:17:01.244Z,76.15
2018-11-14T08:19:44.067Z,76.61
2018-11-14T08:22:25.626Z,76.45
2018-11-14T08:25:09.498Z,77.24
2018-11-14T08:27:51.840Z,78.53
2018-11-14T08:30:34.065Z,80.65
2018-11-14T08:33:16.237Z,80.21
2018-11-14T08:35:58.454Z,79.99
2018-11-14T08:38:39.816Z,81.54
2018-11-14T08:41:22.414Z,79.36
2018-11-14T08:44:04.513Z,79.24
2018-11-14T08:46:46.754Z,79.81
2018-11-14T08:49:29.048Z,80.37
2018-11-14T08:52:11.150Z,82.66
2018-11-14T08:54:53.592Z,81.84
2018-11-14T08:57:36.410Z,82.76
2018-11-14T09:00:20.730Z,82.59
2018-11-14T09:03:03.170Z,81.23
2018-11-14T09:05:45.443Z,81.68
2018-11-14T09:08:27.536Z,81.98
2018-11-14T09:11:09.695Z,81.61
2018-11-14T09:13:51.476Z,82.47
2018-11-14T09:16:34.701Z,81.55
2018-11-14T09:19:16.362Z,80.53
2018-11-14T09:21:58.669Z,80.71
2018-11-14T09:24:40.668Z,79.67
2018-11-14T09:27:22.562Z,78.10
2018-11-14T09:30:05.655Z,73.92
2018-11-14T09:32:47.664Z,70.84
2018-11-14T09:35:29.540Z,70.86
2018-11-14T09:38:12.182Z,69.70
2018-11-14T09:40:55.951Z,69.89
2018-11-14T09:43:38.039Z,69.70
2018-11-14T09:46:20.061Z,69.88
2018-11-14T09:49:01.806Z,68.92
2018-11-14T09:51:43.318Z,69.06
2018-11-14T09:54:25.316Z,67.12
2018-11-14T09:57:08.747Z,65.39
2018-11-14T09:59:50.661Z,67.51
2018-11-14T10:02:32.969Z,66.99
2018-11-14T10:05:16.633Z,68.79
2018-11-14T10:07:59.350Z,69.37
2018-11-14T10:10:41.628Z,65.24
2018-11-14T10:13:24.599Z,68.38
2018-11-14T10:16:06.443Z,68.04
2018-11-14T10:18:48.217Z,64.95
2018-11-14T10:21:31.107Z,67.06
2018-11-14T10:24:13.589Z,67.90
2018-11-14T10:26:55.877Z,65.65
2018-11-14T10:29:38.890Z,67.58
2018-11-14T10:32:20.750Z,66.00
2018-11-14T10:35:02.350Z,67.65
2018-11-14T10:37:44.680Z,64.27
2018-11-14T10:40:27.508Z,66.69
2018-11-14T10:43:09.166Z,64.08
2018-11-14T10:45:51.147Z,65.63
2018-11-14T10:48:33.083Z,66.94
2018-11-14T10:51:14.641Z,63.17
2018-11-14T10:53:56.316Z,64.25
2018-11-14T10:56:37.686Z,65.31
2018-11-14T10:59:20.325Z,66.00
2018-11-14T11:02:08.405Z,66.54
2018-11-14T11:04:55.552Z,64.49
2018-11-14T11:07:43.253Z,63.62
2018-11-14T11:10:30.609Z,63.56
2018-11-14T11:13:18.029Z,64.24
2018-11-14T11:16:41.467Z,62.16
2018-11-14T11:19:26.028Z,63.60
2018-11-14T11:22:07.708Z,66.14
2018-11-14T11:24:50.023Z,64.91
2018-11-14T11:27:32.727Z,65.58
2018-11-14T11:30:15.006Z,65.64
2018-11-14T11:32:56.625Z,66.79
2018-11-14T11:35:42.756Z,65.28
2018-11-14T11:38:25.893Z,67.40
2018-11-14T11:41:08.771Z,65.59
2018-11-14T11:43:50.941Z,66.78
2018-11-14T11:46:32.894Z,65.73
2018-11-14T11:49:15.309Z,65.43
2018-11-14T11:51:57.470Z,64.25
2018-11-14T11:54:38.916Z,65.99
2018-11-14T11:57:20.636Z,65.17
2018-11-14T12:00:03.341Z,64.69
2018-11-14T12:02:46.084Z,65.67
2018-11-14T12:05:27.964Z,63.03
2018-11-14T12:08:16.228Z,61.70
2018-11-14T12:11:05.650Z,62.79
2018-11-14T12:13:48.783Z,61.71
2018-11-14T12:16:31.210Z,59.93
2018-11-14T12:19:14.166Z,60.57
2018-11-14T12:21:55.822Z,60.10
2018-11-14T12:24:38.457Z,60.47
2018-11-14T12:27:20.865Z,61.17
2018-11-14T12:30:02.569Z,61.14
2018-11-14T12:32:44.855Z,61.45
2018-11-14T12:35:26.483Z,62.13
2018-11-14T12:38:09.042Z,59.90
2018-11-14T12:40:51.049Z,61.07
2018-11-14T12:43:41.459Z,60.51
2018-11-14T12:46:36.596Z,59.19
2018-11-14T12:49:19.156Z,58.12
2018-11-14T12:52:01.290Z,57.25
2018-11-14T12:54:43.661Z,57.30
2018-11-14T12:57:25.684Z,57.12
2018-11-14T13:00:09.656Z,56.44
2018-11-14T13:02:55.264Z,59.06
2018-11-14T13:05:44.791Z,59.43
2018-11-14T13:08:26.636Z,55.73
2018-11-14T13:11:08.456Z,58.50
2018-11-14T13:13:50.144Z,56.70
2018-11-14T13:16:32.444Z,56.00
2018-11-14T13:19:14.055Z,57.58
2018-11-14T13:21:55.835Z,55.75
2018-11-14T13:24:37.932Z,52.85
2018-11-14T13:27:19.809Z,55.60
2018-11-14T13:30:02.437Z,58.55
2018-11-14T13:32:45.338Z,58.38
2018-11-14T13:35:27.250Z,55.05
2018-11-14T13:38:08.729Z,57.86
2018-11-14T13:40:50.410Z,56.57
2018-11-14T13:43:31.892Z,55.70
2018-11-14T13:46:13.468Z,54.33
2018-11-14T13:48:55.296Z,55.05
2018-11-14T13:51:37.405Z,55.19
2018-11-14T13:54:18.670Z,55.64
2018-11-14T13:57:01.313Z,55.48
2018-11-14T13:59:43.517Z,56.59
2018-11-14T14:02:25.894Z,57.17
2018-11-14T14:05:10.619Z,56.36
2018-11-14T14:07:53.011Z,56.16
2018-11-14T14:10:35.480Z,55.34
2018-11-14T14:13:17.194Z,55.97
2018-11-14T14:15:58.307Z,56.75
2018-11-14T14:18:40.657Z,57.40
2018-11-14T14:21:22.830Z,58.69
2018-11-14T14:24:04.554Z,57.43
2018-11-14T14:26:46.844Z,59.70
2018-11-14T14:29:28.361Z,59.36
2018-11-14T14:32:10.659Z,61.53
2018-11-14T14:34:51.930Z,62.08
2018-11-14T14:37:33.315Z,62.28
2018-11-14T14:40:17.994Z,61.84
2018-11-14T14:42:59.661Z,62.15
2018-11-14T14:45:41.646Z,63.95
2018-11-14T14:48:25.057Z,62.87
2018-11-14T14:51:07.929Z,63.94
2018-11-14T14:53:50.201Z,64.82
2018-11-14T14:56:32.804Z,64.48
2018-11-14T14:59:15.299Z,65.41
2018-11-14T15:02:01.378Z,64.63
2018-11-14T15:04:43.564Z,64.90
2018-11-14T15:07:25.649Z,66.62
2018-11-14T15:10:10.353Z,67.49
2018-11-14T15:12:52.834Z,67.74
2018-11-14T15:15:35.014Z,67.53
2018-11-14T15:18:17.100Z,67.69
2018-11-14T15:20:59.315Z,67.84
2018-11-14T15:23:40.711Z,68.70
2018-11-14T15:26:22.374Z,68.32
2018-11-14T15:29:04.268Z,70.44
2018-11-14T15:31:46.353Z,69.09
2018-11-14T15:34:29.731Z,69.77
2018-11-14T15:37:11.404Z,71.75
2018-11-14T15:39:53.184Z,71.94
2018-11-14T15:42:36.160Z,73.50
2018-11-14T15:45:20.642Z,74.21
2018-11-14T15:48:02.257Z,74.97
2018-11-14T15:50:43.953Z,76.91
2018-11-14T15:53:26.445Z,77.63
2018-11-14T15:56:08.593Z,78.48
2018-11-14T15:59:03.198Z,79.61
2018-11-14T16:01:46.792Z,79.59
2018-11-14T16:04:28.578Z,79.88
2018-11-14T16:07:11.074Z,79.99
2018-11-14T16:09:53.917Z,79.98
2018-11-14T16:12:36.777Z,80.29
2018-11-14T16:15:19.902Z,81.01
2018-11-14T16:18:02.038Z,81.53
2018-11-14T16:20:44.880Z,81.45
2018-11-14T16:23:26.966Z,81.14
2018-11-14T16:26:08.368Z,80.73
2018-11-14T16:28:51.394Z,78.83
2018-11-14T16:31:33.780Z,78.00
2018-11-14T16:34:15.909Z,78.28
2018-11-14T16:36:57.990Z,78.12
2018-11-14T16:42:33.469Z,78.95
2018-11-14T16:45:16.232Z,80.26
2018-11-14T16:47:58.087Z,81.24
2018-11-14T16:50:42.008Z,81.04
2018-11-14T16:53:24.116Z,81.01
2018-11-14T16:56:07.969Z,81.24
2018-11-14T16:58:49.842Z,81.79
2018-11-14T17:01:32.579Z,82.61
2018-11-14T17:04:14.349Z,82.68
2018-11-14T17:06:55.976Z,83.21
2018-11-14T17:09:38.357Z,83.86
2018-11-14T17:12:21.305Z,84.66
2018-11-14T17:15:05.569Z,83.96
2018-11-14T17:17:47.006Z,83.35
2018-11-14T17:20:30.238Z,83.01
2018-11-14T17:23:22.099Z,82.54
2018-11-14T17:26:05.033Z,83.04
2018-11-14T17:28:47.393Z,83.01
2018-11-14T17:31:29.049Z,83.47
2018-11-14T17:34:10.688Z,84.07
2018-11-14T17:36:52.381Z,84.65
2018-11-14T17:39:34.918Z,84.76
2018-11-14T17:42:18.035Z,84.57
2018-11-14T17:45:00.007Z,85.54
2018-11-14T17:47:43.192Z,85.59
2018-11-14T17:50:27.439Z,85.98
2018-11-14T17:53:09.484Z,85.90
2018-11-14T17:55:51.046Z,86.24
2018-11-14T17:58:33.529Z,86.79
2018-11-14T18:01:15.172Z,87.40
2018-11-14T18:03:56.622Z,87.58
2018-11-14T18:06:39.649Z,87.51
2018-11-14T18:09:21.941Z,87.76
2018-11-14T18:12:04.478Z,88.18
2018-11-14T18:14:46.538Z,88.45
2018-11-14T18:17:28.356Z,88.46
2018-11-14T18:20:12.023Z,88.81
2018-11-14T18:22:55.618Z,89.11
2018-11-14T18:25:41.273Z,88.53
2018-11-14T18:28:23.454Z,88.73
2018-11-14T18:31:05.241Z,89.11
2018-11-14T18:33:47.818Z,89.69
2018-11-14T18:36:29.656Z,89.68
2018-11-14T18:39:13.148Z,89.61
2018-11-14T18:41:54.614Z,89.66
2018-11-14T18:44:36.800Z,89.83
2018-11-14T18:47:19.358Z,90.02
2018-11-14T18:50:02.281Z,89.56
2018-11-14T18:52:44.417Z,89.97
2018-11-14T18:55:28.707Z,90.17
2018-11-14T18:58:11.370Z,90.60
2018-11-14T19:00:53.749Z,90.59
2018-11-14T19:03:36.406Z,90.49
2018-11-14T19:06:18.788Z,90.35
2018-11-14T19:09:02.118Z,90.49
2018-11-14T19:11:43.914Z,90.65
2018-11-14T19:14:26.189Z,90.89
2018-11-14T19:17:08.645Z,89.97
2018-11-14T19:19:50.923Z,90.09
2018-11-14T19:22:33.120Z,90.13
2018-11-14T19:25:17.280Z,90.29
2018-11-14T19:27:59.461Z,90.14
2018-11-14T19:30:43.098Z,90.49
2018-11-14T19:33:25.609Z,90.17
2018-11-14T19:36:07.907Z,90.41
2018-11-14T19:38:50.630Z,90.40
2018-11-14T19:41:33.681Z,90.34
2018-11-14T19:44:16.060Z,90.26
2018-11-14T19:46:59.212Z,90.36
2018-11-14T19:49:41.286Z,90.03
2018-11-14T19:52:23.571Z,89.53
2018-11-14T19:55:06.331Z,89.45
2018-11-14T19:57:49.941Z,89.18
2018-11-14T20:00:35.626Z,89.56
2018-11-14T20:03:17.973Z,89.10
2018-11-14T20:05:59.945Z,89.12
2018-11-14T20:08:44.198Z,88.95
2018-11-14T20:11:26.994Z,89.16
2018-11-14T20:14:08.906Z,88.95
2018-11-14T20:16:51.605Z,89.48
2018-11-14T20:19:33.473Z,89.46
2018-11-14T20:22:16.127Z,88.88
2018-11-14T20:24:58.829Z,89.21
2018-11-14T20:27:41.647Z,88.73
2018-11-14T20:30:25.216Z,89.26
2018-11-14T20:33:11.805Z,89.09
2018-11-14T20:35:53.916Z,88.47
2018-11-14T20:38:37.321Z,88.93
2018-11-14T20:41:20.552Z,88.48
2018-11-14T20:44:02.643Z,88.62
2018-11-14T20:46:45.662Z,88.59
2018-11-14T20:49:28.481Z,89.01
2018-11-14T20:52:12.811Z,88.60
2018-11-14T20:54:54.330Z,88.21
2018-11-14T20:57:37.857Z,88.56
2018-11-14T21:00:23.585Z,88.69
2018-11-14T21:03:06.524Z,88.68
2018-11-14T21:05:49.090Z,89.20
2018-11-14T21:08:31.068Z,88.95
2018-11-14T21:11:14.297Z,88.95
2018-11-14T21:13:57.214Z,88.57
2018-11-14T21:16:39.313Z,88.69
2018-11-14T21:19:22.997Z,88.37
2018-11-14T21:22:06.086Z,88.05
2018-11-14T21:24:48.737Z,88.71
2018-11-14T21:27:32.229Z,87.76
2018-11-14T21:30:16.162Z,88.24
2018-11-14T21:32:58.263Z,88.55
2018-11-14T21:35:40.371Z,87.96
2018-11-14T21:38:26.104Z,87.99
2018-11-14T21:41:09.046Z,88.59
2018-11-14T21:43:51.906Z,88.67
2018-11-14T21:46:34.288Z,88.39
2018-11-14T21:49:22.950Z,88.97
2018-11-14T21:52:05.666Z,88.78
2018-11-14T21:54:48.244Z,88.07
2018-11-14T21:57:30.260Z,88.18
2018-11-14T22:00:18.677Z,88.25
2018-11-14T22:03:01.029Z,87.85
2018-11-14T22:05:43.901Z,88.23
2018-11-14T22:08:26.450Z,87.98
2018-11-14T22:11:08.733Z,87.96
2018-11-14T22:13:51.198Z,88.34
2018-11-14T22:18:52.602Z,89.28
2018-11-14T22:21:34.858Z,89.24
2018-11-14T22:24:17.442Z,89.58
2018-11-14T22:26:59.860Z,89.66
2018-11-14T22:29:42.390Z,90.04
2018-11-14T22:32:24.665Z,89.61
2018-11-14T22:35:08.735Z,89.99
2018-11-14T22:37:50.829Z,89.95
2018-11-14T22:40:33.329Z,90.25
2018-11-14T22:43:15.408Z,90.20
2018-11-14T22:45:57.101Z,90.46
2018-11-14T22:48:39.113Z,90.49
2018-11-14T22:51:21.649Z,90.43
2018-11-14T22:54:03.853Z,90.71
2018-11-14T22:56:46.078Z,90.71
2018-11-14T22:59:28.845Z,90.53
2018-11-14T23:02:11.066Z,90.83
2018-11-14T23:04:54.382Z,90.41
2018-11-14T23:07:37.422Z,90.21
2018-11-14T23:10:20.754Z,90.26
2018-11-14T23:13:02.949Z,90.25
2018-11-14T23:15:45.580Z,90.24
2018-11-14T23:18:27.960Z,90.56
2018-11-14T23:21:09.872Z,90.45
2018-11-14T23:23:51.750Z,90.91
2018-11-14T23:26:34.910Z,91.17
2018-11-14T23:29:17.709Z,90.64
2018-11-14T23:31:59.670Z,90.93
2018-11-14T23:34:47.112Z,90.91
2018-11-14T23:37:28.598Z,91.13
2018-11-14T23:43:54.956Z,91.92
2018-11-14T23:46:38.258Z,92.22
2018-11-14T23:49:19.917Z,92.23
2018-11-14T23:52:02.782Z,92.37
2018-11-14T23:54:45.081Z,92.28
2018-11-14T23:57:28.016Z,92.70
